Petoskey, Michigan
Current Conditions -  °F | °C
As of 2:14 PM on Tuesday 21 Oct 2014 (Local Time) from KMGN Reporting Station
Clear Clear  
Wind Chill: 47°   Ceiling: Unl
Heat Index: 48°   Visibility: 10mi
Dew Point: 29°   Wind: 5mph
Humidity: 47%   Direction: 30°NNE
Pressure: 30.19"   Gusts: NA
Location:  45.38°N, 84.96°W
Report Text: KMGN 211814Z AUTO 03004KT 10SM CLR 08/M01 A3019 RMK AO2 T00911016
Loading
Personal Weather Stations






























Interactive Weather Map
Tropical Storm Tracking
New forecast layout! Learn more

10-Day Weather Forecast

Advertisements
Track Severe Weather on mobile